Share

Hinesville, GA (31310)

Elim / Davenport Acres - Long County (KGALUDOW1) Elev 89 ft | 31.79 °N, 81.69 °W | Change Station

Current weather conditions updated 0 second ago

Overcast
Overcast
54.5 °F
Feels Like 54.5 °F
N
0.0
Wind Variable Wind from NE
Gusts 0.0 mph
Sunrise 6:52 AM
Sunset 7:58 PM
Moon Waning Gibbous

Today is forecast to be Warmer than yesterday.

Pressure 30.04 in
Visibility 10.0 miles
Clouds Overcast 1100 ft
Dew Point 53 °F
Humidity 95%
Rainfall 0.00 in
Snow Depth Not available.
UV 0 out of 16
Pollen 3.10 out of 12
Air Quality Not available.
Flu Activity Sporadic
SPECI KLHW 200508Z AUTO 01008G17KT 10SM OVC011 12/12 A3004 RMK AO2

More Conditions Fewer Conditions

Pressure 30.04 in
Visibility 10.0 miles
Clouds Overcast 1100 ft
Dew Point 53 °F
Humidity 95%
Rainfall 0.00 in
Snow Depth Not available.
UV 0 out of 16
Pollen 3.10 out of 12
Air Quality Not available.
Flu Activity Sporadic
SPECI KLHW 200508Z AUTO 01008G17KT 10SM OVC011 12/12 A3004 RMK AO2

More Conditions Fewer Conditions

10-Day Weather Forecast

Almanac

Astronomy

Apr. 20, 2014 Rise Set
Actual Time 6:52 AM EDT 7:58 PM EDT
Civil Twilight 6:26 AM EDT 8:24 PM EDT
Nautical Twilight 5:56 AM EDT 8:54 PM EDT
Astronomical Twilight 5:25 AM EDT 9:25 PM EDT
Moon 12:30 AM EDT 11:18 AM EDT
Length of Visible Light 13h 57m
Length of Day
13h 06m
Tomorrow will be 1m 48s longer.
Waning Gibbous, 73% of the Moon is Illuminated
Today
Waning Gibbous
Apr 22
Last Quarter
Apr 29
New
May 6
First Quarter
May 14
Full

Today's Extremes

State Highs State Lows

Community

  • Sunny day at the coast-Cape Arago Lighthouse
    Sunny day at the coast-Cape Arago Lighthouse
  • Cherry Blossoms
    Cherry Blossoms
  • White-Crowned Sparrow
    White-Crowned Sparrow
  • New Day
    New Day
  • Happy Easter!
    Happy Easter!

WunderPhotos

Upload Photos

1,703,088 photos uploaded!

WunderBlogs® & News

Nearby

Snow Depth

Station Depth Elevation
No new snow has been reported.

Coastal Water Temperatures

Place Temperature
Fort Pulaski, GA 57.9 °F

Earthquake Activity

City Distance Mag. Time & Date
No recent earthquake activity has been reported nearby.
Minimum magnitude displayed is 2.5.

Nearby Weather Stations

Station Location Temp. Dew Point Humidity Wind Precip. Elev Updated Type
Elim / Davenport Acres - Long County, Ludowici, GA 54.5 °F 53 °F 95% NE  at  0.0 mph 0.00 in / hr 89 ft 1:15 AM EDT Rapid Fire
Center of Liberty, Liberty County, GA 54.9 °F 54 °F 95% NNE  at  6.0 mph 0.00 in / hr 21 ft 1:15 AM EDT Rapid Fire
RAWS MIDWAY GA, Midway, GA 56 °F 55 °F 96% NNE  at  4 mph 0.00 in / hr 15 ft 12:04 AM EDT MADIS
Eagles Landing, Savannah, GA 53.8 °F 54 °F 99% North  at  5.8 mph - / hr 16 ft 1:04 AM EDT Normal
Mark's Hangar, Savannah, GA 54.1 °F 54 °F 99% NE  at  2.7 mph - / hr 36 ft 1:00 AM EDT Normal

Show More Stations Show Fewer Stations

What do you think?

We're not finished. Please let us know what you like, what you don't like, and what you are still missing.